Time;durP1;ratioP1;P1;durP2;ratioP2;P2;SDS_P1;SDS_P2;PMS_P1;PMS_P2;Temp;Humidity;BMP_temperature;BMP_pressure;BME280_temperature;BME280_humidity;BME280_pressure;Samples;Min_cycle;Max_cycle;Signal;HPM_P1;HPM_P2
2021/04/30 00:00:31;;;;;;;;;;;;;;;11.76;68.58;99346.24;126472;1100;22435;-58
2021/04/30 00:03:15;;;;;;;;;;;;;;;11.69;68.66;99346.73;126441;1101;21842;-58
2021/04/30 00:05:44;;;;;;;;;;;;;;;11.63;68.29;99348.75;126398;1101;22478;-59
2021/04/30 00:08:12;;;;;;;;;;;;;;;11.58;68.47;99345.95;126480;1101;21487;-58
2021/04/30 00:10:41;;;;;;;;;;;;;;;11.53;68.60;99353.06;126341;1101;21963;-56
2021/04/30 00:13:10;;;;;;;;;;;;;;;11.48;68.78;99348.25;126464;1101;21464;-57
2021/04/30 00:15:38;;;;;;;;;;;;;;;11.44;68.56;99358.14;127258;1101;21954;-60
2021/04/30 00:18:07;;;;;;;;;;;;;;;11.38;68.89;99349.73;128221;1101;21475;-59
2021/04/30 00:20:38;;;;;;;;;;;;;;;11.36;68.89;99355.83;127758;1101;21609;-60
2021/04/30 00:23:11;;;;;;;;;;;;;;;11.34;68.76;99357.60;126605;1101;21468;-60
2021/04/30 00:25:40;;;;;;;;;;;;;;;11.31;68.92;99359.40;126595;1102;21462;-58
2021/04/30 00:28:09;;;;;;;;;;;;;;;11.25;68.90;99357.86;126596;1101;21454;-59
2021/04/30 00:30:38;;;;;;;;;;;;;;;11.19;69.34;99357.08;126576;1101;21566;-59
2021/04/30 00:33:06;;;;;;;;;;;;;;;11.12;69.17;99363.92;126465;1101;21506;-60
2021/04/30 00:35:34;;;;;;;;;;;;;;;11.06;69.29;99356.79;126395;1101;24792;-59
2021/04/30 00:38:02;;;;;;;;;;;;;;;10.98;69.57;99366.92;126492;1101;21613;-58
2021/04/30 00:40:31;;;;;;;;;;;;;;;10.89;69.44;99365.11;126426;1101;24253;-59
2021/04/30 00:42:59;;;;;;;;;;;;;;;10.84;69.41;99363.05;126540;1101;21468;-55
2021/04/30 00:45:27;;;;;;;;;;;;;;;10.80;69.48;99370.91;126425;1101;21513;-58
2021/04/30 00:47:55;;;;;;;;;;;;;;;10.74;69.64;99378.49;126547;1097;24416;-57
2021/04/30 00:50:24;;;;;;;;;;;;;;;10.73;69.32;99385.36;126415;1101;21584;-58
2021/04/30 00:52:53;;;;;;;;;;;;;;;10.71;69.42;99387.88;126464;1101;23114;-58
2021/04/30 00:55:22;;;;;;;;;;;;;;;10.65;69.57;99400.28;126621;1101;21468;-57
2021/04/30 00:57:53;;;;;;;;;;;;;;;10.51;69.59;99407.58;126591;1097;25658;-60
2021/04/30 01:00:24;;;;;;;;;;;;;;;10.34;69.92;99406.70;126500;1101;21468;-58
2021/04/30 01:02:52;;;;;;;;;;;;;;;10.14;70.04;99407.56;126530;1101;21471;-58
2021/04/30 01:05:21;;;;;;;;;;;;;;;10.03;70.36;99417.86;126630;1101;21494;-60
2021/04/30 01:07:50;;;;;;;;;;;;;;;9.96;70.08;99416.28;126364;1101;21471;-56
2021/04/30 01:10:19;;;;;;;;;;;;;;;9.96;70.02;99416.28;126550;1100;24199;-59
2021/04/30 01:12:48;;;;;;;;;;;;;;;9.97;69.78;99409.45;126511;1101;21494;-59
2021/04/30 01:15:17;;;;;;;;;;;;;;;9.96;69.80;99429.45;126383;1097;25766;-58
2021/04/30 01:17:46;;;;;;;;;;;;;;;9.95;69.76;99417.55;126710;1101;24339;-59
2021/04/30 01:20:18;;;;;;;;;;;;;;;9.97;69.06;99425.41;126626;1097;25701;-57
2021/04/30 01:22:47;;;;;;;;;;;;;;;9.91;69.56;99422.56;126708;1101;23181;-58
2021/04/30 01:25:16;;;;;;;;;;;;;;;9.86;69.71;99422.52;126503;1101;21493;-60
2021/04/30 01:27:46;;;;;;;;;;;;;;;9.82;69.64;99424.77;126552;1096;25808;-58
2021/04/30 01:30:16;;;;;;;;;;;;;;;9.80;69.88;99425.27;126533;1101;21468;-59
2021/04/30 01:32:44;;;;;;;;;;;;;;;9.79;69.60;99418.92;126573;1097;24444;-55
2021/04/30 01:35:18;;;;;;;;;;;;;;;9.79;69.58;99430.07;126567;1101;24250;-58
2021/04/30 01:37:47;;;;;;;;;;;;;;;9.81;69.54;99431.62;126536;1101;21454;-56
2021/04/30 01:40:17;;;;;;;;;;;;;;;9.82;69.53;99438.70;126554;1101;21475;-59
2021/04/30 01:42:57;;;;;;;;;;;;;;;9.82;69.21;99435.92;126489;1101;24192;-59
2021/04/30 01:45:25;;;;;;;;;;;;;;;9.82;69.74;99441.49;126697;1101;21526;-59
2021/04/30 01:47:54;;;;;;;;;;;;;;;9.76;69.50;99445.02;126482;1101;21470;-59
2021/04/30 01:50:22;;;;;;;;;;;;;;;9.76;69.64;99449.81;126587;1101;21488;-58
2021/04/30 01:52:50;;;;;;;;;;;;;;;9.70;69.29;99449.73;126501;1101;21519;-58
2021/04/30 01:55:18;;;;;;;;;;;;;;;9.66;69.63;99448.45;126534;1101;21470;-57
2021/04/30 01:57:47;;;;;;;;;;;;;;;9.56;69.94;99447.06;126465;1101;21468;-59
2021/04/30 02:00:20;;;;;;;;;;;;;;;9.50;69.87;99455.37;126640;1101;21464;-57
2021/04/30 02:02:49;;;;;;;;;;;;;;;9.47;70.41;99458.38;126629;1101;21694;-57
2021/04/30 02:05:17;;;;;;;;;;;;;;;9.42;70.67;99456.28;126467;1101;21559;-60
2021/04/30 02:07:48;;;;;;;;;;;;;;;9.39;70.32;99455.27;126576;1101;21519;-58
2021/04/30 02:10:18;;;;;;;;;;;;;;;9.35;70.70;99451.91;126621;1101;24268;-55
2021/04/30 02:12:48;;;;;;;;;;;;;;;9.31;70.62;99453.39;126637;1101;21629;-59
2021/04/30 02:15:17;;;;;;;;;;;;;;;9.27;70.45;99458.41;126562;1101;23166;-57
2021/04/30 02:17:45;;;;;;;;;;;;;;;9.23;70.69;99457.86;126494;1101;21466;-59
2021/04/30 02:20:15;;;;;;;;;;;;;;;9.19;70.84;99457.28;126581;1101;21462;-61
2021/04/30 02:22:44;;;;;;;;;;;;;;;9.16;70.69;99455.48;126879;1095;24443;-55
2021/04/30 02:25:14;;;;;;;;;;;;;;;9.15;70.66;99453.95;126458;1101;21475;-60
2021/04/30 02:27:43;;;;;;;;;;;;;;;9.13;70.77;99460.01;126509;1101;21461;-57
2021/04/30 02:30:13;;;;;;;;;;;;;;;9.08;71.16;99457.16;126435;1097;25669;-58
2021/04/30 02:32:41;;;;;;;;;;;;;;;9.02;71.07;99462.67;126496;1101;21462;-58
2021/04/30 02:35:12;;;;;;;;;;;;;;;8.98;71.13;99457.30;126456;1101;24262;-59
2021/04/30 02:37:40;;;;;;;;;;;;;;;8.94;71.30;99458.75;126545;1101;21465;-57
2021/04/30 02:40:11;;;;;;;;;;;;;;;8.91;71.49;99451.39;126483;1101;21462;-57
2021/04/30 02:42:39;;;;;;;;;;;;;;;8.91;71.49;99457.73;126473;1101;22768;-56
2021/04/30 02:45:09;;;;;;;;;;;;;;;8.89;71.32;99454.66;126425;1101;21468;-58
2021/04/30 02:47:40;;;;;;;;;;;;;;;8.87;71.51;99454.39;126568;1101;21474;-57
2021/04/30 02:50:09;;;;;;;;;;;;;;;8.84;71.63;99458.13;126323;1101;21461;-57
2021/04/30 02:52:37;;;;;;;;;;;;;;;8.81;71.62;99466.69;126599;1101;21468;-54
2021/04/30 02:55:07;;;;;;;;;;;;;;;8.77;71.70;99458.53;126491;1101;21823;-60
2021/04/30 02:57:35;;;;;;;;;;;;;;;8.77;71.63;99469.66;126543;1101;21463;-57
2021/04/30 03:00:05;;;;;;;;;;;;;;;8.75;71.71;99472.16;126648;1101;21974;-58
2021/04/30 03:02:33;;;;;;;;;;;;;;;8.72;71.57;99470.36;126626;1101;22224;-59
2021/04/30 03:05:01;;;;;;;;;;;;;;;8.69;71.69;99465.76;126397;1101;24243;-56
2021/04/30 03:07:29;;;;;;;;;;;;;;;8.69;71.67;99474.11;126493;1101;21462;-56
2021/04/30 03:09:57;;;;;;;;;;;;;;;8.70;71.67;99478.44;126493;1096;25689;-56
2021/04/30 03:12:26;;;;;;;;;;;;;;;8.72;71.76;99486.29;126542;1097;25690;-57
2021/04/30 03:14:56;;;;;;;;;;;;;;;8.71;71.77;99485.52;126474;1101;21549;-57
2021/04/30 03:17:24;;;;;;;;;;;;;;;8.72;71.94;99486.29;126416;1101;24055;-57
2021/04/30 03:19:52;;;;;;;;;;;;;;;8.70;72.03;99488.79;126429;1101;21620;-57
2021/04/30 03:22:20;;;;;;;;;;;;;;;8.69;71.90;99501.19;126443;1101;21473;-56
2021/04/30 03:24:49;;;;;;;;;;;;;;;8.68;72.00;99503.20;126580;1101;21668;-56
2021/04/30 03:27:17;;;;;;;;;;;;;;;8.68;71.86;99510.77;126447;1101;21667;-55
2021/04/30 03:29:45;;;;;;;;;;;;;;;8.68;72.04;99507.98;126417;1096;24443;-57
2021/04/30 03:32:14;;;;;;;;;;;;;;;8.69;71.72;99510.28;126524;1101;21638;-59
2021/04/30 03:34:42;;;;;;;;;;;;;;;8.69;71.83;99515.09;126581;1101;21469;-56
2021/04/30 03:37:10;;;;;;;;;;;;;;;8.70;71.72;99520.17;126457;1101;21471;-57
2021/04/30 03:39:39;;;;;;;;;;;;;;;8.73;71.51;99524.75;126408;1101;21474;-57
2021/04/30 03:42:07;;;;;;;;;;;;;;;8.76;71.66;99529.37;126396;1101;24198;-57
2021/04/30 03:44:35;;;;;;;;;;;;;;;8.77;71.48;99539.23;126476;1101;21600;-56
2021/04/30 03:47:03;;;;;;;;;;;;;;;8.76;71.33;99537.72;126506;1101;24297;-57
2021/04/30 03:49:32;;;;;;;;;;;;;;;8.76;71.19;99548.84;126445;1101;21529;-57
2021/04/30 03:52:00;;;;;;;;;;;;;;;8.77;71.23;99550.37;126462;1097;24443;-58
2021/04/30 03:54:29;;;;;;;;;;;;;;;8.77;71.15;99557.97;126413;1101;21461;-58
2021/04/30 03:56:58;;;;;;;;;;;;;;;8.77;71.34;99558.72;126580;1097;26128;-54
2021/04/30 03:59:26;;;;;;;;;;;;;;;8.76;71.12;99559.98;126654;1097;25776;-58
2021/04/30 04:01:55;;;;;;;;;;;;;;;8.75;71.10;99566.78;126389;1097;25667;-58
2021/04/30 04:04:24;;;;;;;;;;;;;;;8.75;71.18;99572.34;126338;1101;21462;-57
2021/04/30 04:06:52;;;;;;;;;;;;;;;8.73;71.07;99574.10;126177;1097;24908;-56
2021/04/30 04:09:21;;;;;;;;;;;;;;;8.71;71.43;99574.56;126131;1095;25884;-58
2021/04/30 04:11:49;;;;;;;;;;;;;;;8.69;71.04;99582.63;125915;1101;21468;-57
2021/04/30 04:14:18;;;;;;;;;;;;;;;8.64;71.04;99577.76;125800;1101;21589;-57
2021/04/30 04:16:47;;;;;;;;;;;;;;;8.61;71.18;99587.05;125826;1101;21467;-57
2021/04/30 04:19:18;;;;;;;;;;;;;;;8.56;70.99;99590.53;125867;1101;21471;-58
2021/04/30 04:21:46;;;;;;;;;;;;;;;8.53;70.93;99591.48;125795;1101;22109;-58
2021/04/30 04:24:14;;;;;;;;;;;;;;;8.49;70.95;99593.69;125796;1101;22361;-57
2021/04/30 04:26:42;;;;;;;;;;;;;;;8.48;70.90;99594.95;125797;1101;24253;-58
2021/04/30 04:29:11;;;;;;;;;;;;;;;8.47;71.05;99595.41;125759;1101;21525;-57
2021/04/30 04:31:40;;;;;;;;;;;;;;;8.45;70.85;99595.89;125815;1101;21996;-56
2021/04/30 04:34:08;;;;;;;;;;;;;;;8.46;70.65;99602.23;125831;1101;21527;-55
2021/04/30 04:36:36;;;;;;;;;;;;;;;8.46;70.50;99602.98;125844;1101;21610;-60
2021/04/30 04:39:05;;;;;;;;;;;;;;;8.47;70.42;99604.53;125852;1101;21475;-57
2021/04/30 04:41:33;;;;;;;;;;;;;;;8.47;70.44;99606.53;125967;1101;21581;-57
2021/04/30 04:44:01;;;;;;;;;;;;;;;8.46;70.34;99611.33;125819;1101;21461;-57
2021/04/30 04:46:30;;;;;;;;;;;;;;;8.46;70.31;99618.92;125818;1101;21468;-61
2021/04/30 04:48:58;;;;;;;;;;;;;;;8.45;70.06;99623.72;125903;1101;21468;-58
2021/04/30 04:51:26;;;;;;;;;;;;;;;8.43;69.80;99620.64;125639;1101;21604;-59
2021/04/30 04:53:54;;;;;;;;;;;;;;;8.40;69.72;99627.16;125905;1101;21474;-59
2021/04/30 04:56:26;;;;;;;;;;;;;;;8.38;69.54;99629.64;125780;1101;21510;-57
2021/04/30 04:58:54;;;;;;;;;;;;;;;8.34;69.37;99639.45;125862;1097;24547;-57
2021/04/30 05:01:23;;;;;;;;;;;;;;;8.32;69.19;99644.72;128603;1101;24202;-60
2021/04/30 05:03:52;;;;;;;;;;;;;;;8.32;69.04;99656.59;125909;1101;21462;-61
2021/04/30 05:06:20;;;;;;;;;;;;;;;8.34;68.33;99645.75;125829;1101;21522;-59
2021/04/30 05:08:48;;;;;;;;;;;;;;;8.37;67.87;99647.59;125862;1101;21584;-60
2021/04/30 05:11:17;;;;;;;;;;;;;;;8.35;67.91;99646.53;126013;1096;24495;-61
2021/04/30 05:13:45;;;;;;;;;;;;;;;8.35;68.17;99661.21;125854;1101;21513;-61
2021/04/30 05:16:13;;;;;;;;;;;;;;;8.39;66.70;99659.01;125801;1101;21668;-61
2021/04/30 05:18:43;;;;;;;;;;;;;;;8.44;67.53;99663.89;125483;1096;24591;-60
2021/04/30 05:21:12;;;;;;;;;;;;;;;8.47;67.52;99676.86;125923;1101;21503;-62
2021/04/30 05:23:40;;;;;;;;;;;;;;;8.53;67.82;99679.72;125918;1101;24606;-60
2021/04/30 05:26:09;;;;;;;;;;;;;;;8.55;66.44;99675.23;125891;1097;24601;-61
2021/04/30 05:28:37;;;;;;;;;;;;;;;8.60;66.53;99680.13;125884;1096;25699;-60
2021/04/30 05:31:06;;;;;;;;;;;;;;;8.66;66.61;99675.43;125999;1101;21559;-60
2021/04/30 05:33:34;;;;;;;;;;;;;;;8.73;65.49;99679.84;125777;1101;21527;-61
2021/04/30 05:36:03;;;;;;;;;;;;;;;8.79;65.42;99673.11;125944;1101;21731;-62
2021/04/30 05:38:31;;;;;;;;;;;;;;;8.84;65.62;99672.45;125704;1101;21503;-61
2021/04/30 05:40:59;;;;;;;;;;;;;;;8.90;65.35;99678.88;125753;1101;22341;-59
2021/04/30 05:43:27;;;;;;;;;;;;;;;8.98;66.00;99681.28;125771;1101;23955;-59
2021/04/30 05:45:56;;;;;;;;;;;;;;;9.03;64.32;99675.02;125814;1101;24247;-59
2021/04/30 05:48:25;;;;;;;;;;;;;;;9.07;64.56;99670.78;126006;1101;21468;-61
2021/04/30 05:50:53;;;;;;;;;;;;;;;9.13;64.86;99676.44;125794;1101;21468;-60
2021/04/30 05:53:22;;;;;;;;;;;;;;;9.19;64.92;99678.06;125728;1101;21516;-59
2021/04/30 05:55:51;;;;;;;;;;;;;;;9.24;64.77;99668.26;125926;1101;21468;-59
2021/04/30 05:58:19;;;;;;;;;;;;;;;9.30;63.06;99674.67;125746;1101;21462;-61
2021/04/30 06:00:47;;;;;;;;;;;;;;;9.30;63.47;99672.67;125907;1101;22877;-60
2021/04/30 06:03:16;;;;;;;;;;;;;;;9.35;64.06;99676.80;125760;1097;25814;-60
2021/04/30 06:05:44;;;;;;;;;;;;;;;9.37;63.61;99674.29;125717;1101;21461;-59
2021/04/30 06:08:12;;;;;;;;;;;;;;;9.40;63.24;99664.95;125719;1101;21655;-59
2021/04/30 06:10:40;;;;;;;;;;;;;;;9.43;62.32;99675.91;125772;1101;21574;-60
2021/04/30 06:13:09;;;;;;;;;;;;;;;9.47;63.18;99672.91;125725;1101;24293;-60
2021/04/30 06:15:37;;;;;;;;;;;;;;;9.49;62.52;99679.54;125909;1101;21474;-60
2021/04/30 06:18:06;;;;;;;;;;;;;;;9.46;60.81;99690.86;125730;1101;21963;-59
2021/04/30 06:20:34;;;;;;;;;;;;;;;9.45;61.84;99675.41;126056;1101;23151;-60
2021/04/30 06:23:02;;;;;;;;;;;;;;;9.46;62.41;99682.50;125739;1101;21476;-60
2021/04/30 06:25:31;;;;;;;;;;;;;;;9.51;62.87;99679.82;125754;1101;21522;-60
2021/04/30 06:27:59;;;;;;;;;;;;;;;9.60;62.44;99695.65;125822;1097;25770;-60
2021/04/30 06:30:28;;;;;;;;;;;;;;;9.67;61.85;99687.64;125736;1101;21617;-59
2021/04/30 06:32:56;;;;;;;;;;;;;;;9.72;61.88;99700.87;126034;1101;21471;-61
2021/04/30 06:35:24;;;;;;;;;;;;;;;9.73;60.97;99699.63;125755;1101;21523;-59
2021/04/30 06:37:53;;;;;;;;;;;;;;;9.74;60.75;99700.41;125741;1101;21471;-62
2021/04/30 06:40:21;;;;;;;;;;;;;;;9.76;60.54;99698.67;125725;1101;21668;-60
2021/04/30 06:42:49;;;;;;;;;;;;;;;9.79;60.68;99699.69;125723;1096;24643;-60
2021/04/30 06:45:18;;;;;;;;;;;;;;;9.86;60.61;99704.09;125749;1101;23341;-60
2021/04/30 06:47:46;;;;;;;;;;;;;;;9.91;60.53;99701.37;125849;1101;21582;-59
2021/04/30 06:50:15;;;;;;;;;;;;;;;9.97;61.18;99693.87;125720;1101;21476;-60
2021/04/30 06:52:43;;;;;;;;;;;;;;;10.06;60.18;99704.09;125735;1097;25756;-61
2021/04/30 06:55:12;;;;;;;;;;;;;;;10.12;60.56;99700.14;125737;1101;21465;-60
2021/04/30 06:57:41;;;;;;;;;;;;;;;10.16;60.26;99705.53;125864;1101;21803;-60
2021/04/30 07:00:10;;;;;;;;;;;;;;;10.19;59.88;99698.96;125932;1101;21587;-60
2021/04/30 07:02:39;;;;;;;;;;;;;;;10.21;59.68;99702.80;125862;1101;21951;-60
2021/04/30 07:05:10;;;;;;;;;;;;;;;10.24;59.92;99701.06;125761;1101;24195;-59
2021/04/30 07:07:39;;;;;;;;;;;;;;;10.28;59.26;99712.77;125841;1101;23175;-59
2021/04/30 07:10:08;;;;;;;;;;;;;;;10.31;59.79;99708.98;125878;1101;23280;-60
2021/04/30 07:12:38;;;;;;;;;;;;;;;10.34;59.01;99708.80;126002;1101;21474;-59
2021/04/30 07:15:08;;;;;;;;;;;;;;;10.38;59.35;99703.77;126120;1101;21617;-59
2021/04/30 07:17:36;;;;;;;;;;;;;;;10.44;59.47;99710.17;126000;1102;21471;-59
2021/04/30 07:20:05;;;;;;;;;;;;;;;10.52;59.96;99713.28;125815;1101;21567;-59
2021/04/30 07:22:33;;;;;;;;;;;;;;;10.61;58.78;99712.37;125852;1102;21478;-60
2021/04/30 07:25:02;;;;;;;;;;;;;;;10.68;59.59;99707.10;125726;1101;21710;-60
2021/04/30 07:27:30;;;;;;;;;;;;;;;10.78;58.46;99716.09;125741;1101;21526;-61
2021/04/30 07:29:59;;;;;;;;;;;;;;;10.85;58.44;99722.00;126210;1101;24199;-60
2021/04/30 07:32:27;;;;;;;;;;;;;;;10.92;58.97;99727.16;125746;1101;22332;-60
2021/04/30 07:34:55;;;;;;;;;;;;;;;10.96;58.40;99727.70;125739;1101;21522;-60
2021/04/30 07:37:25;;;;;;;;;;;;;;;11.01;58.31;99729.76;125794;1100;21468;-60
2021/04/30 07:39:53;;;;;;;;;;;;;;;11.06;57.08;99731.84;125883;1101;21471;-62
2021/04/30 07:42:21;;;;;;;;;;;;;;;11.06;57.41;99731.08;125682;1101;21468;-59
2021/04/30 07:44:49;;;;;;;;;;;;;;;11.06;56.91;99734.64;125705;1101;24228;-60
2021/04/30 07:47:18;;;;;;;;;;;;;;;11.05;57.22;99732.35;126409;1101;21468;-60
2021/04/30 07:49:46;;;;;;;;;;;;;;;11.04;56.78;99725.99;125786;1101;21492;-59
2021/04/30 07:52:15;;;;;;;;;;;;;;;11.07;55.67;99732.63;125679;1101;21478;-61
2021/04/30 07:54:44;;;;;;;;;;;;;;;11.11;55.92;99730.37;125807;1101;21465;-61
2021/04/30 07:57:12;;;;;;;;;;;;;;;11.12;55.49;99729.86;126063;1101;21471;-61
2021/04/30 07:59:40;;;;;;;;;;;;;;;11.09;55.52;99735.69;125765;1097;24483;-60
2021/04/30 08:02:10;;;;;;;;;;;;;;;11.11;55.72;99747.13;125847;1101;24205;-60
2021/04/30 08:04:38;;;;;;;;;;;;;;;11.14;55.33;99740.53;125768;1101;21585;-60
2021/04/30 08:07:06;;;;;;;;;;;;;;;11.18;54.94;99749.46;125759;1101;21619;-60
2021/04/30 08:09:34;;;;;;;;;;;;;;;11.20;54.85;99749.73;125755;1101;21922;-60
2021/04/30 08:12:02;;;;;;;;;;;;;;;11.22;55.03;99747.98;125752;1101;21564;-62
2021/04/30 08:14:31;;;;;;;;;;;;;;;11.29;55.24;99750.34;125777;1101;21467;-60
2021/04/30 08:16:59;;;;;;;;;;;;;;;11.32;54.65;99746.53;125788;1101;21495;-61
2021/04/30 08:19:27;;;;;;;;;;;;;;;11.38;55.35;99741.75;125776;1101;24348;-60
2021/04/30 08:21:56;;;;;;;;;;;;;;;11.49;54.80;99751.48;125716;1101;21522;-60
2021/04/30 08:24:25;;;;;;;;;;;;;;;11.59;55.07;99748.00;126021;1101;25586;-62
2021/04/30 08:26:53;;;;;;;;;;;;;;;11.70;55.12;99750.91;125950;1101;23149;-61
2021/04/30 08:29:22;;;;;;;;;;;;;;;11.77;54.63;99747.64;125726;1101;21462;-60
2021/04/30 08:31:52;;;;;;;;;;;;;;;11.84;54.29;99744.39;125962;1101;21468;-60
2021/04/30 08:34:20;;;;;;;;;;;;;;;11.87;54.38;99754.59;126011;1101;24201;-60
2021/04/30 08:36:49;;;;;;;;;;;;;;;11.93;53.98;99763.77;125722;1101;23268;-61
2021/04/30 08:39:17;;;;;;;;;;;;;;;12.01;53.83;99764.84;125736;1101;21506;-62
2021/04/30 08:41:48;;;;;;;;;;;;;;;12.06;54.59;99763.34;125738;1101;21474;-61
2021/04/30 08:44:16;;;;;;;;;;;;;;;12.10;54.03;99763.87;125896;1101;23175;-60
2021/04/30 08:46:45;;;;;;;;;;;;;;;12.14;53.79;99765.17;125772;1101;21474;-60
2021/04/30 08:49:13;;;;;;;;;;;;;;;12.23;53.38;99766.22;125841;1101;21468;-60
2021/04/30 08:51:42;;;;;;;;;;;;;;;12.25;53.56;99772.08;125696;1101;24262;-60
2021/04/30 08:54:11;;;;;;;;;;;;;;;12.31;53.30;99781.27;125948;1101;21522;-62
2021/04/30 08:56:47;;;;;;;;;;;;;;;12.37;52.61;99791.23;125905;1101;23460;-60
2021/04/30 08:59:15;;;;;;;;;;;;;;;12.37;51.81;99788.42;125836;1101;21613;-59
2021/04/30 09:01:44;;;;;;;;;;;;;;;12.38;52.38;99780.77;125670;1101;21616;-61
2021/04/30 09:04:13;;;;;;;;;;;;;;;12.42;52.44;99784.09;125805;1101;21467;-61
2021/04/30 09:06:42;;;;;;;;;;;;;;;12.44;52.96;99773.94;125957;1101;21617;-60
2021/04/30 09:09:12;;;;;;;;;;;;;;;12.52;52.18;99779.84;125818;1101;21556;-60
2021/04/30 09:11:41;;;;;;;;;;;;;;;12.57;51.95;99788.25;125984;1101;21473;-59
2021/04/30 09:14:20;;;;;;;;;;;;;;;12.55;50.97;99779.59;125848;1097;25701;-60
2021/04/30 09:17:03;;;;;;;;;;;;;;;12.55;51.27;99776.78;125777;1101;24227;-61
2021/04/30 09:19:32;;;;;;;;;;;;;;;12.54;51.65;99772.44;125837;1101;21471;-59
2021/04/30 09:22:03;;;;;;;;;;;;;;;12.57;51.34;99770.67;125829;1101;21911;-62
2021/04/30 09:24:33;;;;;;;;;;;;;;;12.58;50.79;99772.22;125811;1101;24256;-60
2021/04/30 09:27:02;;;;;;;;;;;;;;;12.60;51.18;99778.08;125926;1101;21467;-60
2021/04/30 09:29:34;;;;;;;;;;;;;;;12.67;50.94;99774.77;125741;1101;22994;-60
2021/04/30 09:32:04;;;;;;;;;;;;;;;12.72;51.14;99783.22;126054;1101;21477;-60
2021/04/30 09:34:33;;;;;;;;;;;;;;;12.81;50.58;99779.39;125827;1097;25645;-59
2021/04/30 09:37:11;;;;;;;;;;;;;;;12.89;51.38;99786.06;125804;1101;21462;-61
2021/04/30 09:39:52;;;;;;;;;;;;;;;12.97;51.23;99784.29;125962;1101;21474;-60
2021/04/30 09:42:22;;;;;;;;;;;;;;;13.08;50.99;99764.70;125808;1101;21584;-60
2021/04/30 09:44:52;;;;;;;;;;;;;;;13.13;50.54;99777.97;126047;1101;22323;-59
2021/04/30 09:47:22;;;;;;;;;;;;;;;13.11;50.41;99783.32;125822;1101;23147;-61
2021/04/30 09:49:51;;;;;;;;;;;;;;;13.11;50.63;99785.35;125610;1102;24198;-61
2021/04/30 09:52:20;;;;;;;;;;;;;;;13.12;50.11;99773.63;125914;1101;21471;-61
2021/04/30 09:54:49;;;;;;;;;;;;;;;13.12;50.04;99781.29;125832;1101;23397;-60
2021/04/30 09:57:20;;;;;;;;;;;;;;;13.18;49.64;99779.25;125911;1096;26503;-60
2021/04/30 09:59:55;;;;;;;;;;;;;;;13.19;49.99;99784.34;125960;1101;21468;-60
2021/04/30 10:02:25;;;;;;;;;;;;;;;13.23;50.49;99770.84;125811;1101;21530;-62
2021/04/30 10:04:57;;;;;;;;;;;;;;;13.28;50.02;99786.91;125992;1101;21461;-61
2021/04/30 10:07:30;;;;;;;;;;;;;;;13.27;49.51;99767.78;126585;1101;21530;-61
2021/04/30 10:10:03;;;;;;;;;;;;;;;13.32;48.97;99772.64;126208;1101;21689;-60
2021/04/30 10:12:32;;;;;;;;;;;;;;;13.37;49.68;99771.86;125909;1101;21780;-60
2021/04/30 10:15:01;;;;;;;;;;;;;;;13.37;49.55;99753.00;125895;1101;23168;-61
2021/04/30 10:17:29;;;;;;;;;;;;;;;13.38;50.25;99768.56;125954;1101;21465;-60
2021/04/30 10:19:57;;;;;;;;;;;;;;;13.44;49.86;99772.13;125822;1101;21461;-61
2021/04/30 10:22:27;;;;;;;;;;;;;;;13.48;48.74;99771.87;125900;1097;25737;-62
2021/04/30 10:24:56;;;;;;;;;;;;;;;13.47;49.99;99765.48;126146;1101;21471;-60
2021/04/30 10:27:28;;;;;;;;;;;;;;;13.55;48.70;99771.37;125751;1101;21613;-61
2021/04/30 10:30:02;;;;;;;;;;;;;;;13.55;48.97;99763.70;125898;1101;21525;-60
2021/04/30 10:32:33;;;;;;;;;;;;;;;13.53;48.72;99759.89;126043;1096;25673;-62
2021/04/30 10:35:03;;;;;;;;;;;;;;;13.59;48.86;99758.59;125709;1101;21496;-60
2021/04/30 10:37:32;;;;;;;;;;;;;;;13.64;48.72;99763.45;125725;1101;23122;-60
2021/04/30 10:40:03;;;;;;;;;;;;;;;13.65;47.99;99767.79;126086;1101;21528;-60
2021/04/30 10:42:40;;;;;;;;;;;;;;;13.69;48.30;99751.46;126257;1101;21549;-60
2021/04/30 10:45:12;;;;;;;;;;;;;;;13.75;48.86;99768.28;125932;1097;25868;-59
2021/04/30 10:47:41;;;;;;;;;;;;;;;13.80;48.57;99773.13;126013;1101;21610;-60
2021/04/30 10:50:16;;;;;;;;;;;;;;;13.81;48.21;99757.81;126781;1101;23130;-60
2021/04/30 10:52:45;;;;;;;;;;;;;;;13.87;48.28;99757.79;125885;1096;24575;-59
2021/04/30 10:55:17;;;;;;;;;;;;;;;13.91;48.36;99761.09;125845;1101;21500;-60
2021/04/30 10:57:53;;;;;;;;;;;;;;;13.99;47.83;99767.73;125984;1101;21465;-62
2021/04/30 11:00:25;;;;;;;;;;;;;;;13.95;48.14;99762.37;126010;1101;21461;-61
2021/04/30 11:03:11;;;;;;;;;;;;;;;13.96;48.28;99779.97;125838;1101;21480;-61
2021/04/30 11:05:51;;;;;;;;;;;;;;;13.94;47.71;99757.27;125917;1101;21581;-59
2021/04/30 11:08:20;;;;;;;;;;;;;;;14.00;48.01;99764.41;126109;1101;21619;-60
2021/04/30 11:10:48;;;;;;;;;;;;;;;14.08;48.59;99764.63;126042;1101;21468;-59
2021/04/30 11:13:18;;;;;;;;;;;;;;;14.14;48.00;99770.99;125930;1101;21472;-60
2021/04/30 11:15:53;;;;;;;;;;;;;;;14.16;48.53;99782.47;126056;1101;21468;-61
2021/04/30 11:18:24;;;;;;;;;;;;;;;14.15;48.13;99783.77;125922;1097;25702;-61
2021/04/30 11:21:00;;;;;;;;;;;;;;;14.17;47.60;99770.75;126033;1101;21467;-59
2021/04/30 11:23:29;;;;;;;;;;;;;;;14.16;47.35;99766.40;126099;1101;23131;-60
2021/04/30 11:26:08;;;;;;;;;;;;;;;14.19;47.96;99764.61;126091;1101;21522;-61
2021/04/30 11:28:54;;;;;;;;;;;;;;;14.17;47.54;99773.55;126022;1101;21937;-61
2021/04/30 11:31:27;;;;;;;;;;;;;;;14.23;48.23;99768.69;125905;1101;21567;-60
2021/04/30 11:34:09;;;;;;;;;;;;;;;14.31;47.79;99777.36;126006;1101;21474;-62
2021/04/30 11:36:46;;;;;;;;;;;;;;;14.41;47.17;99770.94;125860;1097;26827;-61
2021/04/30 11:42:12;;;;;;;;;;;;;;;14.53;47.55;99757.59;125537;1104;21507;-62
2021/04/30 11:44:41;;;;;;;;;;;;;;;14.56;47.52;99760.16;125562;1105;21498;-62
2021/04/30 11:47:14;;;;;;;;;;;;;;;14.61;47.45;99769.81;125577;1104;24199;-61
2021/04/30 11:49:42;;;;;;;;;;;;;;;14.58;47.13;99757.59;125654;1104;21558;-61
2021/04/30 11:52:12;;;;;;;;;;;;;;;14.63;46.58;99758.82;125582;1105;21519;-61
2021/04/30 11:54:42;;;;;;;;;;;;;;;14.69;47.40;99764.43;125750;1104;21623;-60
2021/04/30 11:57:11;;;;;;;;;;;;;;;14.72;46.63;99763.38;125864;1105;21592;-60
2021/04/30 11:59:41;;;;;;;;;;;;;;;14.72;46.65;99754.95;125464;1100;24505;-60
2021/04/30 12:02:10;;;;;;;;;;;;;;;14.73;46.73;99748.83;125596;1104;25503;-60
2021/04/30 12:04:47;;;;;;;;;;;;;;;14.73;46.68;99739.63;125660;1098;25674;-60
2021/04/30 12:07:16;;;;;;;;;;;;;;;14.72;46.53;99754.95;125565;1104;23183;-58
2021/04/30 12:09:44;;;;;;;;;;;;;;;14.69;47.00;99759.55;125602;1105;21472;-61
2021/04/30 12:12:15;;;;;;;;;;;;;;;14.66;45.63;99752.17;125389;1105;21468;-61
2021/04/30 12:14:48;;;;;;;;;;;;;;;14.63;46.35;99747.58;125727;1098;25712;-61
2021/04/30 12:17:27;;;;;;;;;;;;;;;14.62;46.76;99746.07;125473;1104;25547;-60
2021/04/30 12:19:56;;;;;;;;;;;;;;;14.61;46.24;99738.91;125751;1101;21468;-62
2021/04/30 12:22:26;;;;;;;;;;;;;;;14.65;47.04;99733.78;126102;1101;21468;-61
2021/04/30 12:25:15;;;;;;;;;;;;;;;14.63;47.32;99735.61;126443;1101;21481;-61
2021/04/30 12:27:45;;;;;;;;;;;;;;;14.69;46.18;99733.52;125780;1101;24277;-62
2021/04/30 12:30:24;;;;;;;;;;;;;;;14.75;46.39;99734.25;125946;1097;24527;-61
2021/04/30 12:32:53;;;;;;;;;;;;;;;14.71;46.67;99730.95;125704;1101;21617;-60
2021/04/30 12:35:23;;;;;;;;;;;;;;;14.65;45.93;99725.34;125797;1097;26544;-60
2021/04/30 12:37:52;;;;;;;;;;;;;;;14.65;46.76;99736.59;125693;1101;21559;-61
2021/04/30 12:40:25;;;;;;;;;;;;;;;14.70;45.86;99741.42;125793;1097;25919;-59
2021/04/30 12:42:53;;;;;;;;;;;;;;;14.74;45.98;99730.67;125726;1101;23926;-59
2021/04/30 12:45:22;;;;;;;;;;;;;;;14.77;45.49;99737.31;126240;1101;21465;-60
2021/04/30 12:47:54;;;;;;;;;;;;;;;14.73;46.10;99736.82;125657;1101;21581;-62
2021/04/30 12:50:24;;;;;;;;;;;;;;;14.68;46.53;99729.17;126430;1101;21468;-60
2021/04/30 12:52:53;;;;;;;;;;;;;;;14.71;46.35;99737.32;125814;1101;21467;-62
2021/04/30 12:55:25;;;;;;;;;;;;;;;14.74;46.14;99738.33;125987;1101;24319;-60